createdAt,value
2019-01-06T00:00:48.673Z,75.91
2019-01-06T00:01:46.605Z,77.05
2019-01-06T00:02:45.116Z,77.77
2019-01-06T00:03:44.081Z,77.26
2019-01-06T00:04:44.079Z,77.47
2019-01-06T00:05:47.686Z,77.67
2019-01-06T00:06:45.645Z,77.67
2019-01-06T00:07:44.646Z,77.47
2019-01-06T00:08:45.680Z,77.81
2019-01-06T00:09:45.678Z,77.81
2019-01-06T00:10:45.609Z,77.81
2019-01-06T00:11:47.136Z,79.47
2019-01-06T00:12:43.986Z,79.19
2019-01-06T00:13:46.683Z,79.09
2019-01-06T00:14:43.969Z,79.19
2019-01-06T00:15:46.662Z,79.60
2019-01-06T00:16:44.171Z,79.09
2019-01-06T00:17:44.660Z,78.92
2019-01-06T00:18:44.652Z,79.33
2019-01-06T00:19:45.601Z,79.33
2019-01-06T00:20:46.648Z,79.95
2019-01-06T00:21:43.907Z,80.88
2019-01-06T00:22:43.882Z,81.02
2019-01-06T00:23:43.912Z,81.30
2019-01-06T00:24:43.924Z,81.54
2019-01-06T00:25:48.653Z,80.05
2019-01-06T00:26:44.857Z,80.40
2019-01-06T00:27:43.827Z,80.78
2019-01-06T00:28:47.637Z,81.09
2019-01-06T00:29:46.597Z,81.54
2019-01-06T00:30:46.635Z,81.09
2019-01-06T00:31:46.640Z,80.47
2019-01-06T00:32:45.830Z,80.95
2019-01-06T00:33:43.872Z,80.57
2019-01-06T00:34:43.876Z,81.68
2019-01-06T00:35:43.797Z,80.68
2019-01-06T00:36:43.806Z,81.68
2019-01-06T00:37:43.832Z,80.99
2019-01-06T00:38:44.906Z,81.20
2019-01-06T00:39:44.680Z,80.99
2019-01-06T00:40:46.683Z,80.47
2019-01-06T00:41:46.718Z,80.40
2019-01-06T00:42:48.752Z,81.09
2019-01-06T00:43:44.659Z,81.40
2019-01-06T00:44:45.656Z,80.99
2019-01-06T00:45:46.119Z,80.61
2019-01-06T00:46:44.143Z,81.44
2019-01-06T00:47:43.625Z,81.75
2019-01-06T00:48:45.125Z,80.71
2019-01-06T00:50:18.113Z,81.48
2019-01-06T00:50:46.103Z,80.92
2019-01-06T00:52:04.714Z,81.06
2019-01-06T00:52:43.597Z,81.54
2019-01-06T00:53:43.607Z,81.34
2019-01-06T00:54:43.577Z,85.89
2019-01-06T00:55:45.634Z,89.07
2019-01-06T00:56:44.185Z,84.33
2019-01-06T00:57:43.578Z,82.43
2019-01-06T00:58:44.222Z,81.81
2019-01-06T00:59:45.246Z,80.01
2019-01-06T01:00:45.802Z,78.56
2019-01-06T01:01:44.103Z,77.43
2019-01-06T01:02:51.284Z,76.39
2019-01-06T01:03:46.129Z,76.12
2019-01-06T01:04:43.483Z,75.81
2019-01-06T01:05:44.174Z,76.22
2019-01-06T01:06:48.450Z,77.39
2019-01-06T01:07:44.151Z,77.81
2019-01-06T01:08:45.153Z,77.91
2019-01-06T01:09:44.157Z,77.60
2019-01-06T01:10:44.149Z,77.53
2019-01-06T01:11:43.369Z,77.43
2019-01-06T01:12:46.131Z,77.12
2019-01-06T01:13:45.122Z,78.67
2019-01-06T01:14:46.152Z,78.30
2019-01-06T01:15:45.145Z,77.64
2019-01-06T01:16:47.196Z,77.67
2019-01-06T01:17:43.323Z,77.57
2019-01-06T01:18:43.296Z,77.88
2019-01-06T01:19:44.282Z,78.33
2019-01-06T01:20:54.369Z,80.40
2019-01-06T01:21:45.150Z,78.75
2019-01-06T01:22:43.258Z,79.16
2019-01-06T01:23:46.173Z,79.68
2019-01-06T01:24:43.229Z,79.06
2019-01-06T01:25:45.117Z,79.37
2019-01-06T01:26:48.520Z,78.23
2019-01-06T01:27:44.185Z,78.23
2019-01-06T01:28:44.193Z,78.37
2019-01-06T01:29:46.152Z,79.41
2019-01-06T01:30:47.621Z,78.99
2019-01-06T01:31:45.748Z,79.71
2019-01-06T01:32:43.126Z,79.82
2019-01-06T01:33:44.655Z,78.78
2019-01-06T01:34:43.117Z,79.03
2019-01-06T01:35:47.167Z,79.24
2019-01-06T01:36:43.097Z,79.96
2019-01-06T01:37:43.080Z,80.47
2019-01-06T01:38:45.118Z,80.47
2019-01-06T01:39:43.067Z,80.68
2019-01-06T01:40:45.125Z,80.27
2019-01-06T01:41:44.693Z,80.58
2019-01-06T01:42:43.668Z,81.04
2019-01-06T01:43:45.673Z,81.62
2019-01-06T01:44:44.008Z,80.79
2019-01-06T01:45:47.986Z,80.68
2019-01-06T01:46:44.669Z,81.51
2019-01-06T01:47:44.119Z,81.30
2019-01-06T01:48:47.659Z,81.72
2019-01-06T01:49:42.953Z,91.91
2019-01-06T01:50:42.948Z,89.81
2019-01-06T01:51:43.936Z,84.25
2019-01-06T01:52:42.930Z,81.21
2019-01-06T01:53:48.633Z,78.14
2019-01-06T01:54:43.627Z,76.08
2019-01-06T01:55:44.689Z,74.36
2019-01-06T01:56:42.880Z,73.12
2019-01-06T01:57:43.663Z,73.30
2019-01-06T01:58:43.881Z,72.16
2019-01-06T02:00:05.650Z,71.23
2019-01-06T02:00:44.625Z,70.68
2019-01-06T02:01:43.648Z,70.17
2019-01-06T02:02:45.657Z,70.28
2019-01-06T02:03:44.117Z,70.28
2019-01-06T02:04:44.126Z,70.37
2019-01-06T02:06:36.901Z,69.76
2019-01-06T02:07:47.534Z,69.45
2019-01-06T02:08:36.386Z,68.73
2019-01-06T02:09:35.410Z,69.79
2019-01-06T02:10:37.907Z,69.96
2019-01-06T02:11:36.412Z,70.82
2019-01-06T02:12:36.850Z,71.57
2019-01-06T02:13:38.883Z,73.57
2019-01-06T02:14:35.921Z,74.33
2019-01-06T02:15:43.498Z,75.70
2019-01-06T02:16:37.393Z,75.74
2019-01-06T02:17:36.370Z,77.01
2019-01-06T02:18:35.319Z,77.84
2019-01-06T02:19:41.266Z,78.36
2019-01-06T02:20:35.305Z,78.02
2019-01-06T02:21:36.287Z,78.19
2019-01-06T02:22:36.274Z,79.06
2019-01-06T02:23:36.887Z,79.27
2019-01-06T02:24:35.263Z,81.23
2019-01-06T02:25:35.226Z,80.30
2019-01-06T02:26:35.238Z,81.16
2019-01-06T02:27:36.341Z,80.40
2019-01-06T02:28:36.922Z,80.71
2019-01-06T02:29:35.885Z,80.19
2019-01-06T02:30:47.100Z,80.51
2019-01-06T02:31:35.167Z,81.06
2019-01-06T02:32:35.169Z,80.75
2019-01-06T02:33:35.167Z,81.06
2019-01-06T02:34:35.151Z,80.96
2019-01-06T02:35:37.368Z,80.23
2019-01-06T02:36:36.941Z,81.68
2019-01-06T02:37:35.103Z,81.72
2019-01-06T02:38:36.925Z,82.03
2019-01-06T02:39:35.856Z,81.82
2019-01-06T02:40:35.115Z,81.62
2019-01-06T02:41:35.064Z,81.82
2019-01-06T02:42:36.892Z,82.55
2019-01-06T02:43:36.884Z,81.93
2019-01-06T02:44:35.047Z,82.55
2019-01-06T02:45:35.064Z,85.97
2019-01-06T02:46:36.884Z,86.55
2019-01-06T02:47:35.023Z,86.76
2019-01-06T02:48:35.866Z,84.65
2019-01-06T02:49:41.419Z,86.41
2019-01-06T02:50:34.978Z,85.24
2019-01-06T02:51:38.887Z,85.65
2019-01-06T02:52:34.961Z,84.30
2019-01-06T02:53:37.042Z,85.03
2019-01-06T02:54:34.936Z,85.61
2019-01-06T02:55:37.859Z,86.07
2019-01-06T02:56:37.890Z,84.47
2019-01-06T02:57:35.926Z,82.81
2019-01-06T02:58:35.903Z,84.27
2019-01-06T02:59:36.350Z,83.99
2019-01-06T03:00:34.860Z,82.71
2019-01-06T03:01:41.405Z,84.06
2019-01-06T03:02:36.394Z,84.06
2019-01-06T03:03:36.401Z,81.57
2019-01-06T03:04:34.813Z,82.29
2019-01-06T03:05:39.362Z,83.33
2019-01-06T03:06:34.804Z,82.29
2019-01-06T03:07:35.810Z,83.16
2019-01-06T03:08:41.025Z,83.75
2019-01-06T03:09:34.919Z,81.68
2019-01-06T03:10:35.393Z,81.61
2019-01-06T03:11:39.412Z,81.78
2019-01-06T03:12:37.388Z,81.92
2019-01-06T03:13:34.765Z,82.44
2019-01-06T03:14:35.359Z,84.09
2019-01-06T03:15:35.404Z,82.71
2019-01-06T03:16:34.689Z,81.88
2019-01-06T03:17:35.358Z,83.02
2019-01-06T03:18:38.391Z,80.57
2019-01-06T03:19:34.672Z,81.78
2019-01-06T03:20:35.882Z,84.68
2019-01-06T03:21:36.401Z,83.02
2019-01-06T03:22:35.387Z,81.16
2019-01-06T03:23:34.620Z,81.68
2019-01-06T03:24:34.614Z,82.50
2019-01-06T03:25:35.617Z,82.19
2019-01-06T03:26:35.404Z,81.88
2019-01-06T03:27:34.591Z,82.57
2019-01-06T03:28:37.357Z,81.84
2019-01-06T03:29:35.576Z,81.23
2019-01-06T03:30:37.379Z,81.12
2019-01-06T03:31:39.370Z,81.23
2019-01-06T03:32:35.409Z,82.15
2019-01-06T03:33:34.528Z,83.09
2019-01-06T03:34:34.519Z,80.50
2019-01-06T03:35:34.514Z,80.50
2019-01-06T03:36:34.485Z,81.33
2019-01-06T03:37:35.895Z,80.40
2019-01-06T03:38:40.403Z,81.43
2019-01-06T03:39:35.446Z,81.84
2019-01-06T03:40:34.481Z,81.43
2019-01-06T03:41:38.433Z,82.46
2019-01-06T03:42:37.863Z,81.09
2019-01-06T03:43:36.464Z,81.39
2019-01-06T03:44:40.404Z,79.88
2019-01-06T03:45:35.859Z,79.67
2019-01-06T03:46:36.394Z,80.40
2019-01-06T03:47:36.841Z,79.05
2019-01-06T03:48:35.355Z,79.16
2019-01-06T03:49:41.896Z,81.02
2019-01-06T03:50:36.364Z,81.33
2019-01-06T03:51:34.328Z,79.16
2019-01-06T03:52:36.903Z,78.95
2019-01-06T03:53:52.398Z,79.57
2019-01-06T03:54:35.324Z,81.33
2019-01-06T03:55:35.290Z,80.60
2019-01-06T03:56:34.883Z,81.43
2019-01-06T03:57:34.893Z,83.09
2019-01-06T03:58:36.853Z,81.74
2019-01-06T03:59:34.928Z,79.67
2019-01-06T04:00:34.238Z,78.74
2019-01-06T04:01:34.212Z,81.23
2019-01-06T04:02:35.908Z,80.29
2019-01-06T04:03:35.190Z,79.98
2019-01-06T04:04:34.186Z,79.05
2019-01-06T04:05:34.181Z,81.33
2019-01-06T04:06:34.171Z,80.91
2019-01-06T04:07:34.140Z,81.54
2019-01-06T04:08:35.857Z,79.26
2019-01-06T04:09:36.845Z,81.54
2019-01-06T04:10:35.128Z,79.43
2019-01-06T04:11:34.124Z,79.26
2019-01-06T04:12:35.124Z,79.16
2019-01-06T04:13:36.370Z,79.36
2019-01-06T04:14:34.095Z,82.78
2019-01-06T04:15:34.081Z,80.81
2019-01-06T04:16:34.066Z,81.54
2019-01-06T04:17:35.478Z,81.60
2019-01-06T04:18:34.905Z,79.12
2019-01-06T04:19:35.923Z,80.05
2019-01-06T04:20:36.893Z,79.94
2019-01-06T04:21:34.005Z,79.02
2019-01-06T04:22:33.988Z,82.53
2019-01-06T04:23:34.010Z,80.15
2019-01-06T04:24:33.962Z,80.46
2019-01-06T04:25:33.963Z,81.39
2019-01-06T04:26:35.897Z,81.19
2019-01-06T04:27:33.929Z,81.35
2019-01-06T04:28:35.864Z,80.77
2019-01-06T04:29:34.900Z,80.15
2019-01-06T04:30:33.896Z,79.02
2019-01-06T04:31:33.901Z,81.19
2019-01-06T04:32:34.874Z,79.53
2019-01-06T04:33:33.877Z,78.81
2019-01-06T04:34:33.870Z,79.43
2019-01-06T04:35:34.873Z,78.60
2019-01-06T04:36:33.852Z,81.39
2019-01-06T04:37:33.888Z,79.02
2019-01-06T04:38:34.822Z,78.91
2019-01-06T04:39:33.811Z,78.12
2019-01-06T04:40:34.404Z,79.43
2019-01-06T04:41:33.819Z,81.33
2019-01-06T04:42:33.775Z,78.53
2019-01-06T04:43:33.769Z,81.60
2019-01-06T04:44:33.767Z,79.02
2019-01-06T04:45:34.413Z,80.57
2019-01-06T04:46:33.755Z,81.49
2019-01-06T04:47:33.775Z,81.12
2019-01-06T04:48:34.415Z,82.53
2019-01-06T04:49:33.699Z,78.91
2019-01-06T04:50:34.402Z,79.12
2019-01-06T04:51:33.704Z,78.33
2019-01-06T04:52:34.924Z,78.81
2019-01-06T04:53:33.659Z,80.50
2019-01-06T04:54:33.643Z,79.05
2019-01-06T04:55:34.401Z,77.91
2019-01-06T04:56:33.632Z,79.16
2019-01-06T04:57:33.618Z,79.26
2019-01-06T04:58:33.906Z,79.67
2019-01-06T04:59:33.598Z,79.16
2019-01-06T05:00:35.363Z,78.95
2019-01-06T05:01:33.593Z,79.26
2019-01-06T05:02:33.575Z,78.95
2019-01-06T05:03:33.568Z,82.26
2019-01-06T05:04:33.565Z,79.67
2019-01-06T05:05:33.525Z,78.85
2019-01-06T05:06:33.510Z,81.12
2019-01-06T05:07:33.504Z,81.12
2019-01-06T05:08:34.413Z,78.39
2019-01-06T05:09:34.348Z,78.02
2019-01-06T05:10:35.402Z,79.98
2019-01-06T05:11:33.509Z,81.23
2019-01-06T05:12:33.467Z,79.43
2019-01-06T05:13:33.466Z,79.84
2019-01-06T05:14:33.455Z,78.12
2019-01-06T05:15:34.373Z,79.05
2019-01-06T05:16:33.406Z,78.85
2019-01-06T05:18:26.446Z,81.12
2019-01-06T05:19:26.414Z,79.12
2019-01-06T05:20:26.415Z,79.12
2019-01-06T05:21:27.024Z,78.81
2019-01-06T05:22:26.414Z,81.60
2019-01-06T05:23:26.405Z,79.94
2019-01-06T05:24:26.373Z,79.43
2019-01-06T05:25:26.396Z,79.02
2019-01-06T05:26:26.978Z,79.12
2019-01-06T05:27:26.473Z,78.43
2019-01-06T05:28:26.345Z,78.12
2019-01-06T05:29:29.014Z,79.05
2019-01-06T05:30:26.304Z,77.50
2019-01-06T05:31:26.305Z,80.60
2019-01-06T05:32:26.297Z,80.29
2019-01-06T05:33:28.999Z,77.81
2019-01-06T05:34:28.018Z,77.60
2019-01-06T05:35:28.004Z,78.74
2019-01-06T05:36:26.248Z,79.36
2019-01-06T05:37:26.246Z,81.64
2019-01-06T05:38:28.000Z,79.88
2019-01-06T05:39:26.254Z,78.12
2019-01-06T05:40:26.210Z,80.77
2019-01-06T05:41:26.194Z,77.50
2019-01-06T05:42:26.187Z,79.05
2019-01-06T05:43:28.999Z,79.05
2019-01-06T05:44:26.203Z,80.81
2019-01-06T05:45:28.007Z,81.19
2019-01-06T05:46:26.175Z,79.05
2019-01-06T05:47:26.122Z,77.47
2019-01-06T05:48:26.122Z,79.77
2019-01-06T05:49:26.130Z,77.98
2019-01-06T05:50:27.024Z,77.56
2019-01-06T05:51:26.088Z,77.98
2019-01-06T05:52:26.102Z,77.60
2019-01-06T05:53:26.063Z,78.50
2019-01-06T05:54:27.006Z,78.60
2019-01-06T05:55:29.032Z,77.39
2019-01-06T05:56:26.049Z,79.12
2019-01-06T05:57:26.016Z,77.77
2019-01-06T05:58:28.998Z,77.39
2019-01-06T05:59:26.006Z,77.29
2019-01-06T06:00:26.002Z,78.02
2019-01-06T06:01:25.986Z,80.60
2019-01-06T06:02:26.002Z,79.05
2019-01-06T06:03:25.975Z,77.19
2019-01-06T06:04:25.944Z,76.98
2019-01-06T06:05:25.938Z,79.16
2019-01-06T06:06:25.971Z,78.16
2019-01-06T06:07:25.915Z,81.02
2019-01-06T06:08:27.536Z,77.81
2019-01-06T06:09:26.901Z,78.33
2019-01-06T06:10:25.889Z,76.67
2019-01-06T06:11:25.899Z,77.50
2019-01-06T06:12:27.015Z,77.09
2019-01-06T06:13:27.223Z,77.39
2019-01-06T06:14:26.036Z,77.60
2019-01-06T06:15:27.503Z,78.02
2019-01-06T06:16:25.829Z,79.47
2019-01-06T06:17:26.511Z,79.16
2019-01-06T06:18:26.795Z,77.09
2019-01-06T06:19:26.490Z,77.70
2019-01-06T06:20:25.803Z,77.39
2019-01-06T06:21:25.785Z,76.26
2019-01-06T06:22:25.757Z,77.50
2019-01-06T06:23:25.757Z,76.05
2019-01-06T06:24:25.745Z,77.43
2019-01-06T06:25:27.498Z,75.95
2019-01-06T06:26:25.756Z,76.40
2019-01-06T06:27:25.703Z,76.50
2019-01-06T06:28:25.709Z,77.50
2019-01-06T06:29:25.694Z,76.40
2019-01-06T06:30:27.508Z,76.19
2019-01-06T06:31:25.691Z,77.01
2019-01-06T06:32:25.674Z,77.12
2019-01-06T06:33:25.664Z,78.36
2019-01-06T06:34:27.509Z,77.53
2019-01-06T06:35:26.636Z,77.53
2019-01-06T06:36:25.637Z,77.70
2019-01-06T06:37:26.025Z,78.95
2019-01-06T06:38:25.597Z,76.46
2019-01-06T06:39:25.586Z,79.26
2019-01-06T06:40:25.594Z,78.99
2019-01-06T06:41:27.516Z,80.40
2019-01-06T06:42:25.572Z,77.81
2019-01-06T06:43:26.538Z,77.70
2019-01-06T06:44:26.485Z,75.74
2019-01-06T06:45:26.478Z,76.78
2019-01-06T06:46:25.502Z,76.15
2019-01-06T06:47:25.520Z,76.36
2019-01-06T06:48:25.501Z,77.70
2019-01-06T06:49:28.022Z,76.98
2019-01-06T06:50:25.473Z,77.01
2019-01-06T06:51:27.029Z,77.70
2019-01-06T06:52:25.445Z,77.81
2019-01-06T06:53:25.444Z,77.50
2019-01-06T06:54:25.504Z,77.19
2019-01-06T06:55:33.170Z,76.78
2019-01-06T06:56:32.630Z,75.95
2019-01-06T06:57:25.408Z,78.43
2019-01-06T06:58:25.385Z,76.88
2019-01-06T06:59:25.385Z,75.95
2019-01-06T07:00:29.065Z,76.46
2019-01-06T07:01:25.356Z,77.50
2019-01-06T07:02:29.080Z,77.09
2019-01-06T07:03:25.338Z,76.29
2019-01-06T07:04:26.068Z,79.16
2019-01-06T07:05:25.305Z,79.57
2019-01-06T07:06:25.316Z,78.02
2019-01-06T07:07:27.116Z,77.81
2019-01-06T07:08:26.304Z,78.29
2019-01-06T07:09:25.261Z,79.33
2019-01-06T07:10:25.260Z,79.22
2019-01-06T07:11:25.250Z,77.67
2019-01-06T07:12:25.307Z,77.67
2019-01-06T07:13:25.227Z,76.43
2019-01-06T07:14:26.059Z,76.43
2019-01-06T07:15:25.204Z,77.43
2019-01-06T07:16:25.190Z,77.33
2019-01-06T07:17:25.209Z,77.53
2019-01-06T07:18:28.057Z,76.53
2019-01-06T07:19:25.167Z,74.77
2019-01-06T07:20:27.116Z,75.91
2019-01-06T07:21:25.163Z,78.60
2019-01-06T07:22:25.127Z,76.01
2019-01-06T07:23:25.623Z,76.22
2019-01-06T07:24:25.158Z,76.32
2019-01-06T07:25:25.114Z,75.29
2019-01-06T07:26:26.080Z,74.77
2019-01-06T07:27:25.100Z,79.33
2019-01-06T07:28:25.124Z,77.81
2019-01-06T07:29:26.587Z,75.91
2019-01-06T07:30:25.058Z,76.22
2019-01-06T07:31:25.108Z,75.53
2019-01-06T07:32:25.027Z,75.53
2019-01-06T07:33:25.012Z,76.98
2019-01-06T07:34:25.006Z,76.95
2019-01-06T07:35:26.610Z,76.22
2019-01-06T07:36:24.979Z,74.60
2019-01-06T07:37:24.989Z,75.53
2019-01-06T07:38:25.001Z,76.26
2019-01-06T07:39:24.944Z,76.36
2019-01-06T07:41:17.980Z,75.43
2019-01-06T07:42:19.546Z,76.22
2019-01-06T07:43:19.542Z,77.60
2019-01-06T07:44:18.990Z,75.53
2019-01-06T07:45:17.918Z,76.64
2019-01-06T07:46:17.915Z,74.40
2019-01-06T07:47:17.932Z,74.77
2019-01-06T07:48:18.555Z,75.60
2019-01-06T07:49:17.881Z,74.77
2019-01-06T07:50:17.900Z,75.84
2019-01-06T07:51:17.869Z,75.29
2019-01-06T07:52:20.517Z,75.70
2019-01-06T07:53:19.606Z,74.57
2019-01-06T07:54:18.830Z,76.01
2019-01-06T07:55:17.865Z,74.46
2019-01-06T07:56:17.810Z,77.26
2019-01-06T07:57:17.796Z,76.22
2019-01-06T07:58:17.790Z,74.57
2019-01-06T07:59:17.792Z,73.74
2019-01-06T08:00:18.765Z,73.12
2019-01-06T08:01:17.770Z,73.33
2019-01-06T08:02:17.746Z,76.01
2019-01-06T08:03:17.745Z,74.88
2019-01-06T08:04:18.616Z,75.50
2019-01-06T08:05:25.733Z,75.67
2019-01-06T08:06:17.699Z,74.12
2019-01-06T08:07:27.649Z,72.05
2019-01-06T08:08:26.624Z,72.47
2019-01-06T08:09:25.653Z,73.50
2019-01-06T08:10:26.099Z,72.57
2019-01-06T08:11:26.588Z,71.84
2019-01-06T08:12:25.077Z,72.16
2019-01-06T08:13:17.631Z,72.78
2019-01-06T08:14:25.028Z,72.67
2019-01-06T08:15:26.533Z,71.81
2019-01-06T08:16:17.607Z,73.16
2019-01-06T08:17:17.597Z,71.64
2019-01-06T08:18:19.415Z,72.85
2019-01-06T08:19:17.562Z,73.12
2019-01-06T08:21:11.195Z,73.22
2019-01-06T08:22:11.169Z,71.57
2019-01-06T08:23:11.662Z,71.09
2019-01-06T08:24:12.140Z,72.64
2019-01-06T08:25:11.135Z,73.47
2019-01-06T08:26:11.136Z,74.15
2019-01-06T08:27:11.131Z,73.54
2019-01-06T08:28:11.675Z,72.40
2019-01-06T08:29:12.644Z,71.26
2019-01-06T08:30:11.083Z,72.19
2019-01-06T08:31:11.083Z,70.12
2019-01-06T08:32:11.648Z,70.98
2019-01-06T08:33:11.045Z,72.12
2019-01-06T08:34:11.046Z,71.88
2019-01-06T08:35:11.638Z,71.16
2019-01-06T08:36:11.669Z,71.61
2019-01-06T08:37:11.027Z,73.33
2019-01-06T08:38:13.667Z,72.30
2019-01-06T08:39:10.980Z,72.33
2019-01-06T08:40:10.999Z,70.85
2019-01-06T08:41:12.665Z,71.78
2019-01-06T08:42:10.950Z,70.57
2019-01-06T08:43:10.955Z,70.98
2019-01-06T08:44:10.941Z,72.12
2019-01-06T08:45:10.923Z,71.92
2019-01-06T08:46:10.901Z,73.98
2019-01-06T08:47:11.634Z,71.71
2019-01-06T08:48:10.885Z,72.71
2019-01-06T08:49:10.892Z,70.33
2019-01-06T08:50:12.674Z,73.22
2019-01-06T08:51:11.661Z,74.15
2019-01-06T08:52:12.662Z,71.16
2019-01-06T08:53:13.682Z,69.82
2019-01-06T08:54:13.703Z,72.19
2019-01-06T08:55:13.648Z,72.67
2019-01-06T08:56:12.661Z,71.78
2019-01-06T08:57:13.668Z,71.44
2019-01-06T08:58:10.780Z,69.68
2019-01-06T08:59:10.782Z,70.09
2019-01-06T09:00:12.182Z,70.82
2019-01-06T09:01:10.751Z,69.89
2019-01-06T09:02:10.732Z,69.27
2019-01-06T09:03:10.716Z,71.85
2019-01-06T09:04:10.712Z,70.72
2019-01-06T09:05:15.718Z,69.17
2019-01-06T09:06:11.180Z,70.40
2019-01-06T09:07:10.686Z,69.89
2019-01-06T09:08:10.662Z,69.99
2019-01-06T09:09:10.647Z,70.09
2019-01-06T09:10:11.651Z,69.89
2019-01-06T09:11:10.647Z,71.09
2019-01-06T09:12:10.680Z,71.09
2019-01-06T09:13:10.610Z,70.65
2019-01-06T09:14:10.607Z,70.89
2019-01-06T09:15:10.591Z,68.38
2019-01-06T09:16:10.601Z,69.31
2019-01-06T09:17:10.582Z,67.97
2019-01-06T09:18:10.574Z,68.59
2019-01-06T09:19:10.552Z,70.34
2019-01-06T09:20:11.171Z,68.79
2019-01-06T09:21:11.241Z,68.07
2019-01-06T09:22:11.161Z,68.38
2019-01-06T09:23:11.547Z,69.17
2019-01-06T09:24:11.499Z,68.45
2019-01-06T09:25:10.504Z,67.32
2019-01-06T09:26:10.474Z,68.66
2019-01-06T09:27:10.469Z,68.83
2019-01-06T09:28:10.459Z,68.52
2019-01-06T09:29:10.464Z,66.36
2019-01-06T09:30:10.442Z,66.15
2019-01-06T09:31:10.430Z,67.70
2019-01-06T09:32:10.409Z,68.45
2019-01-06T09:33:10.406Z,69.04
2019-01-06T09:34:11.175Z,67.90
2019-01-06T09:35:11.655Z,67.08
2019-01-06T09:36:11.174Z,67.29
2019-01-06T09:37:11.154Z,67.66
2019-01-06T09:38:11.182Z,66.12
2019-01-06T09:39:10.371Z,66.12
2019-01-06T09:40:12.173Z,66.50
2019-01-06T09:41:10.329Z,65.37
2019-01-06T09:42:10.307Z,66.40
2019-01-06T09:43:10.296Z,64.99
2019-01-06T09:44:11.151Z,65.61
2019-01-06T09:45:14.163Z,65.09
2019-01-06T09:46:10.285Z,66.22
2019-01-06T09:47:14.166Z,66.12
2019-01-06T09:48:10.426Z,64.58
2019-01-06T09:49:12.224Z,66.53
2019-01-06T09:50:10.217Z,67.15
2019-01-06T09:51:10.382Z,63.03
2019-01-06T09:52:10.194Z,65.30
2019-01-06T09:53:11.178Z,63.85
2019-01-06T09:54:10.778Z,62.75
2019-01-06T09:55:10.185Z,65.12
2019-01-06T09:56:10.189Z,64.43
2019-01-06T09:57:12.001Z,65.36
2019-01-06T09:58:10.137Z,65.49
2019-01-06T09:59:10.145Z,65.49
2019-01-06T10:00:10.114Z,67.35
2019-01-06T10:01:10.098Z,65.08
2019-01-06T10:02:11.227Z,66.52
2019-01-06T10:03:10.108Z,66.31
2019-01-06T10:04:11.114Z,66.31
2019-01-06T10:05:10.062Z,68.17
2019-01-06T10:06:11.131Z,66.01
2019-01-06T10:07:11.074Z,65.59
2019-01-06T10:08:10.715Z,65.18
2019-01-06T10:09:10.023Z,65.39
2019-01-06T10:10:10.018Z,66.42
2019-01-06T10:11:11.675Z,66.11
2019-01-06T10:12:10.040Z,67.21
2019-01-06T10:13:11.683Z,67.83
2019-01-06T10:14:09.984Z,65.36
2019-01-06T10:15:13.661Z,67.52
2019-01-06T10:16:09.981Z,67.42
2019-01-06T10:17:10.657Z,65.46
2019-01-06T10:18:11.673Z,64.74
2019-01-06T10:19:09.912Z,66.18
2019-01-06T10:20:16.692Z,66.18
2019-01-06T10:21:09.884Z,64.61
2019-01-06T10:22:09.888Z,66.25
2019-01-06T10:23:10.681Z,66.02
2019-01-06T10:24:09.876Z,64.17
2019-01-06T10:25:10.873Z,62.59
2019-01-06T10:26:11.154Z,64.34
2019-01-06T10:27:11.686Z,61.33
2019-01-06T10:28:12.672Z,61.09
2019-01-06T10:29:09.815Z,60.89
2019-01-06T10:30:10.679Z,63.25
2019-01-06T10:31:09.821Z,62.12
2019-01-06T10:32:09.780Z,61.94
2019-01-06T10:33:09.782Z,61.12
2019-01-06T10:34:09.757Z,61.53
2019-01-06T10:35:09.743Z,63.18
2019-01-06T10:36:10.711Z,63.07
2019-01-06T10:37:09.752Z,61.09
2019-01-06T10:38:10.720Z,62.53
2019-01-06T10:39:09.761Z,61.81
2019-01-06T10:40:09.684Z,59.73
2019-01-06T10:41:09.675Z,59.52
2019-01-06T10:42:10.180Z,57.98
2019-01-06T10:43:09.677Z,59.11
2019-01-06T10:44:09.653Z,58.62
2019-01-06T10:45:09.650Z,59.58
2019-01-06T10:46:09.627Z,58.65
2019-01-06T10:47:10.609Z,60.30
2019-01-06T10:48:09.597Z,61.98
2019-01-06T10:49:09.732Z,60.12
2019-01-06T10:50:09.609Z,60.43
2019-01-06T10:51:09.569Z,61.90
2019-01-06T10:52:09.563Z,61.90
2019-01-06T10:53:09.578Z,61.59
2019-01-06T10:54:10.206Z,61.28
2019-01-06T10:55:09.524Z,60.49
2019-01-06T10:56:09.518Z,61.10
2019-01-06T10:57:11.853Z,61.72
2019-01-06T10:58:09.502Z,61.10
2019-01-06T10:59:09.492Z,61.75
2019-01-06T11:00:16.856Z,63.81
2019-01-06T11:01:09.463Z,62.54
2019-01-06T11:02:09.460Z,62.65
2019-01-06T11:03:10.199Z,61.72
2019-01-06T11:04:12.206Z,61.41
2019-01-06T11:05:12.159Z,61.10
2019-01-06T11:06:10.166Z,61.21
2019-01-06T11:07:11.158Z,60.38
2019-01-06T11:08:10.142Z,63.06
2019-01-06T11:09:12.155Z,61.33
2019-01-06T11:10:11.239Z,61.31
2019-01-06T11:11:10.662Z,61.31
2019-01-06T11:12:10.162Z,62.44
2019-01-06T11:13:09.342Z,61.44
2019-01-06T11:14:10.198Z,59.77
2019-01-06T11:15:09.318Z,60.31
2019-01-06T11:16:10.170Z,62.16
2019-01-06T11:17:12.158Z,61.96
2019-01-06T11:18:10.212Z,61.75
2019-01-06T11:19:09.330Z,60.93
2019-01-06T11:20:10.184Z,63.71
2019-01-06T11:21:10.257Z,61.85
2019-01-06T11:22:16.196Z,63.50
2019-01-06T11:23:09.260Z,62.85
2019-01-06T11:24:10.206Z,61.00
2019-01-06T11:25:12.161Z,61.41
2019-01-06T11:26:11.175Z,61.82
2019-01-06T11:27:09.194Z,62.41
2019-01-06T11:28:10.651Z,62.82
2019-01-06T11:29:09.690Z,61.07
2019-01-06T11:30:10.653Z,60.25
2019-01-06T11:31:09.141Z,59.84
2019-01-06T11:32:09.769Z,61.59
2019-01-06T11:33:12.679Z,61.77
2019-01-06T11:34:12.178Z,61.90
2019-01-06T11:35:10.652Z,60.15
2019-01-06T11:36:10.143Z,59.94
2019-01-06T11:37:09.098Z,61.07
2019-01-06T11:38:10.648Z,60.28
2019-01-06T11:39:09.068Z,61.52
2019-01-06T11:40:09.075Z,61.44
2019-01-06T11:41:10.685Z,62.16
2019-01-06T11:42:09.659Z,62.65
2019-01-06T11:43:09.005Z,61.41
2019-01-06T11:44:09.682Z,62.13
2019-01-06T11:45:09.983Z,61.61
2019-01-06T11:46:08.969Z,61.82
2019-01-06T11:47:10.161Z,61.10
2019-01-06T11:48:08.953Z,62.13
2019-01-06T11:49:08.967Z,61.21
2019-01-06T11:50:08.981Z,62.13
2019-01-06T11:51:08.926Z,62.44
2019-01-06T11:52:08.943Z,62.85
2019-01-06T11:53:19.722Z,61.31
2019-01-06T11:54:10.674Z,62.00
2019-01-06T11:55:09.917Z,62.00
2019-01-06T11:56:09.683Z,61.52
2019-01-06T11:57:10.714Z,61.52
2019-01-06T11:58:11.700Z,60.07
2019-01-06T11:59:13.752Z,62.13
2019-01-06T12:00:09.737Z,61.31
2019-01-06T12:01:12.670Z,60.17
2019-01-06T12:02:09.671Z,61.10
2019-01-06T12:03:10.663Z,61.21
2019-01-06T12:04:10.672Z,61.31
2019-01-06T12:05:09.768Z,61.00
2019-01-06T12:06:08.772Z,60.17
2019-01-06T12:07:14.708Z,60.28
2019-01-06T12:08:09.720Z,61.72
2019-01-06T12:09:09.808Z,61.52
2019-01-06T12:10:08.729Z,61.41
2019-01-06T12:11:12.728Z,60.38
2019-01-06T12:12:09.258Z,58.65
2019-01-06T12:13:11.669Z,59.28
2019-01-06T12:14:12.166Z,60.41
2019-01-06T12:15:08.669Z,61.13
2019-01-06T12:16:09.255Z,58.86
2019-01-06T12:17:08.672Z,58.97
2019-01-06T12:18:10.201Z,60.41
2019-01-06T12:19:10.239Z,59.38
2019-01-06T12:20:08.618Z,60.41
2019-01-06T12:21:11.192Z,60.44
2019-01-06T12:22:08.589Z,58.69
2019-01-06T12:23:08.586Z,60.95
2019-01-06T12:24:08.607Z,60.85
2019-01-06T12:25:08.572Z,61.26
2019-01-06T12:26:08.556Z,59.82
2019-01-06T12:27:13.196Z,61.85
2019-01-06T12:28:08.523Z,61.24
2019-01-06T12:29:23.208Z,62.16
2019-01-06T12:30:11.204Z,60.41
2019-01-06T12:31:09.207Z,60.64
2019-01-06T12:32:09.159Z,60.64
2019-01-06T12:33:09.472Z,61.33
2019-01-06T12:34:10.194Z,60.44
2019-01-06T12:35:09.455Z,61.88
2019-01-06T12:36:10.208Z,61.26
2019-01-06T12:37:09.432Z,62.08
2019-01-06T12:38:10.236Z,61.57
2019-01-06T12:39:08.433Z,61.16
2019-01-06T12:40:08.396Z,61.88
2019-01-06T12:41:09.170Z,60.23
2019-01-06T12:42:14.671Z,60.23
2019-01-06T12:43:12.194Z,60.44
2019-01-06T12:44:10.188Z,60.23
2019-01-06T12:45:08.369Z,60.95
2019-01-06T12:46:11.178Z,61.57
2019-01-06T12:47:08.701Z,70.03
2019-01-06T12:48:10.165Z,65.80
2019-01-06T12:49:09.333Z,62.78
2019-01-06T12:50:09.302Z,62.88
2019-01-06T12:51:08.282Z,66.39
2019-01-06T12:52:10.164Z,65.53
2019-01-06T12:53:09.186Z,64.58
2019-01-06T12:54:08.237Z,63.13
2019-01-06T12:55:08.249Z,59.61
2019-01-06T12:56:09.213Z,58.78